Time;durP1;ratioP1;P1;durP2;ratioP2;P2;SDS_P1;SDS_P2;PMS_P1;PMS_P2;Temp;Humidity;BMP_temperature;BMP_pressure;BME280_temperature;BME280_humidity;BME280_pressure;Samples;Min_cycle;Max_cycle;Signal;HPM_P1;HPM_P2
2022/12/21 00:01:30;;;;;;;64.13;38.60;;;3.50;86.70;;;;;;5061528;28;20222;-69
2022/12/21 00:04:01;;;;;;;84.28;40.10;;;3.60;86.70;;;;;;5061560;28;20680;-68
2022/12/21 00:06:31;;;;;;;79.43;42.97;;;3.60;86.70;;;;;;5060235;28;20761;-69
2022/12/21 00:09:01;;;;;;;81.68;42.47;;;3.60;86.70;;;;;;5057986;28;20195;-68
2022/12/21 00:11:31;;;;;;;89.32;45.00;;;3.60;86.70;;;;;;5060397;28;20207;-68
2022/12/21 00:14:01;;;;;;;78.10;43.55;;;3.60;86.70;;;;;;5062159;28;20211;-70
2022/12/21 00:16:32;;;;;;;92.40;45.95;;;3.60;86.70;;;;;;5060521;28;20271;-68
2022/12/21 00:19:01;;;;;;;96.03;50.67;;;3.50;86.70;;;;;;5061376;28;20219;-68
2022/12/21 00:21:31;;;;;;;106.80;49.00;;;3.60;86.70;;;;;;5062342;28;20253;-71
2022/12/21 00:24:00;;;;;;;82.55;48.15;;;3.60;86.80;;;;;;5060885;28;20223;-67
2022/12/21 00:26:31;;;;;;;103.60;52.20;;;3.60;86.80;;;;;;5062774;28;20318;-70
2022/12/21 00:29:00;;;;;;;86.00;43.95;;;3.60;86.90;;;;;;5063510;28;20200;-65
2022/12/21 00:31:30;;;;;;;86.75;45.55;;;3.60;86.90;;;;;;5059118;28;20211;-70
2022/12/21 00:33:59;;;;;;;73.68;42.92;;;3.60;86.80;;;;;;5060810;28;20200;-68
2022/12/21 00:36:32;;;;;;;77.65;41.38;;;3.60;86.80;;;;;;5082284;28;20762;-69
2022/12/21 00:39:00;;;;;;;69.70;39.00;;;3.60;86.70;;;;;;5060603;28;20212;-68
2022/12/21 00:41:30;;;;;;;75.10;41.05;;;3.60;86.70;;;;;;5052733;28;21039;-69
2022/12/21 00:43:58;;;;;;;82.78;41.53;;;3.60;86.70;;;;;;5078736;28;20216;-69
2022/12/21 00:46:27;;;;;;;82.75;43.20;;;3.60;86.70;;;;;;5055102;28;20212;-68
2022/12/21 00:48:56;;;;;;;83.22;44.75;;;3.60;86.70;;;;;;5060807;28;20195;-68
2022/12/21 00:51:25;;;;;;;91.82;43.83;;;3.60;86.70;;;;;;5061631;28;20288;-68
2022/12/21 00:53:55;;;;;;;81.82;43.63;;;3.60;86.70;;;;;;5050084;28;20364;-67
2022/12/21 00:56:23;;;;;;;87.10;43.88;;;3.60;86.70;;;;;;5059819;28;20216;-68
2022/12/21 00:58:53;;;;;;;80.20;42.30;;;3.60;86.70;;;;;;5060512;28;20215;-69
2022/12/21 01:01:22;;;;;;;78.03;41.55;;;3.60;86.70;;;;;;5060031;28;20218;-69
2022/12/21 01:03:53;;;;;;;88.82;46.75;;;3.60;86.70;;;;;;5057654;28;20227;-66
2022/12/21 01:06:23;;;;;;;79.53;42.35;;;3.60;86.70;;;;;;5062455;28;20204;-70
2022/12/21 01:08:52;;;;;;;81.68;43.13;;;3.60;86.70;;;;;;5057475;28;20223;-70
2022/12/21 01:11:20;;;;;;;84.63;43.83;;;3.60;86.80;;;;;;5062569;28;20236;-66
2022/12/21 01:13:49;;;;;;;84.72;43.38;;;3.60;86.80;;;;;;5063646;28;20227;-66
2022/12/21 01:16:21;;;;;;;83.03;43.22;;;3.60;86.80;;;;;;5065181;28;20215;-69
2022/12/21 01:18:50;;;;;;;100.80;47.58;;;3.60;86.80;;;;;;5065593;28;21186;-68
2022/12/21 01:21:25;;;;;;;74.97;41.78;;;3.60;86.70;;;;;;5064288;28;20223;-68
2022/12/21 01:23:55;;;;;;;86.30;44.40;;;3.70;86.80;;;;;;5063817;28;20576;-68
2022/12/21 01:26:24;;;;;;;87.35;44.65;;;3.70;86.80;;;;;;5063373;28;20954;-68
2022/12/21 01:28:52;;;;;;;80.78;41.92;;;3.70;86.80;;;;;;5061731;28;20277;-70
2022/12/21 01:31:21;;;;;;;85.88;44.85;;;3.70;86.80;;;;;;5078555;28;20989;-69
2022/12/21 01:33:50;;;;;;;82.13;45.13;;;3.70;86.70;;;;;;5063302;28;20211;-68
2022/12/21 01:36:19;;;;;;;88.18;45.85;;;3.70;86.80;;;;;;5064774;28;20204;-69
2022/12/21 01:38:47;;;;;;;86.25;44.53;;;3.70;86.80;;;;;;5063416;28;20203;-67
2022/12/21 01:41:18;;;;;;;82.10;45.53;;;3.70;86.80;;;;;;5063854;28;20680;-69
2022/12/21 01:43:48;;;;;;;89.70;43.70;;;3.70;86.80;;;;;;5065945;28;20628;-67
2022/12/21 01:46:22;;;;;;;78.75;42.85;;;3.70;86.80;;;;;;5065738;28;20208;-68
2022/12/21 01:48:55;;;;;;;76.13;44.15;;;3.70;86.80;;;;;;5062049;28;20200;-70
2022/12/21 01:51:23;;;;;;;85.18;43.90;;;3.70;86.80;;;;;;5080077;28;20207;-68
2022/12/21 01:53:55;;;;;;;90.07;43.03;;;3.70;86.80;;;;;;5064011;28;20265;-68
2022/12/21 01:56:28;;;;;;;82.82;43.20;;;3.70;86.80;;;;;;5061637;28;20203;-68
2022/12/21 01:58:58;;;;;;;83.30;43.97;;;3.70;86.80;;;;;;5062418;28;20272;-69
2022/12/21 02:01:30;;;;;;;92.20;46.05;;;3.70;86.80;;;;;;5072606;28;20211;-68
2022/12/21 02:03:59;;;;;;;80.25;45.45;;;3.70;86.80;;;;;;5078472;28;20203;-69
2022/12/21 02:06:32;;;;;;;86.65;47.45;;;3.70;86.80;;;;;;5064210;28;20814;-67
2022/12/21 02:09:02;;;;;;;85.05;45.30;;;3.70;86.70;;;;;;5060144;28;20207;-67
2022/12/21 02:11:31;;;;;;;79.43;44.05;;;3.70;86.70;;;;;;5061958;28;20473;-69
2022/12/21 02:13:59;;;;;;;80.68;42.20;;;3.70;86.70;;;;;;5074821;28;20258;-69
2022/12/21 02:16:43;;;;;;;71.50;41.30;;;3.70;86.80;;;;;;5078328;28;20211;-68
2022/12/21 02:19:52;;;;;;;99.45;49.42;;;3.70;86.80;;;;;;5057938;28;20231;-68
2022/12/21 02:22:35;;;;;;;87.25;45.20;;;3.70;86.80;;;;;;5063365;28;20656;-70
2022/12/21 02:25:53;;;;;;;85.55;43.67;;;3.70;86.80;;;;;;5063101;28;20918;-69
2022/12/21 02:28:35;;;;;;;94.47;45.88;;;3.70;86.80;;;;;;5063489;28;20211;-69
2022/12/21 02:31:13;;;;;;;127.75;57.28;;;3.70;86.80;;;;;;5063051;28;20278;-68
2022/12/21 02:33:56;;;;;;;107.35;51.22;;;3.70;86.90;;;;;;5063552;28;20759;-70
2022/12/21 02:36:30;;;;;;;92.65;49.78;;;3.70;86.90;;;;;;5062791;28;20704;-69
2022/12/21 02:39:09;;;;;;;109.82;50.22;;;3.70;86.90;;;;;;5061148;28;20196;-68
2022/12/21 02:41:50;;;;;;;98.82;48.30;;;3.70;86.90;;;;;;5077835;28;20223;-69
2022/12/21 02:44:33;;;;;;;110.18;53.42;;;3.70;86.90;;;;;;5079577;28;20199;-67
2022/12/21 02:47:09;;;;;;;98.70;51.80;;;3.70;86.90;;;;;;5061183;28;20208;-69
2022/12/21 02:49:42;;;;;;;108.30;52.75;;;3.70;87.00;;;;;;5079793;28;20231;-66
2022/12/21 02:52:15;;;;;;;103.95;51.17;;;3.70;87.00;;;;;;5061604;28;20215;-68
2022/12/21 02:54:44;;;;;;;94.30;47.83;;;3.70;87.00;;;;;;5060813;28;20227;-69
2022/12/21 02:57:14;;;;;;;131.65;58.95;;;3.70;87.00;;;;;;5054570;28;20713;-66
2022/12/21 02:59:46;;;;;;;109.28;56.33;;;3.80;86.90;;;;;;5078650;28;20228;-68
2022/12/21 03:03:47;;;;;;;107.88;53.95;;;3.70;86.90;;;;;;5061946;28;20193;-67
2022/12/21 03:05:58;;;;;;;94.60;50.33;;;3.80;87.00;;;;;;5083808;28;20204;-69
2022/12/21 03:08:31;;;;;;;92.05;48.22;;;3.80;87.00;;;;;;5061721;28;20206;-68
2022/12/21 03:11:01;;;;;;;100.18;48.78;;;3.80;87.00;;;;;;5060312;28;20912;-69
2022/12/21 03:13:39;;;;;;;98.38;46.88;;;3.80;87.00;;;;;;5086954;28;20208;-66
2022/12/21 03:16:17;;;;;;;82.40;45.80;;;3.80;86.90;;;;;;5078889;28;20196;-69
2022/12/21 03:18:57;;;;;;;87.30;45.97;;;3.80;86.90;;;;;;5063887;28;20208;-68
2022/12/21 03:21:31;;;;;;;85.05;44.47;;;3.80;86.90;;;;;;5060299;28;20302;-68
2022/12/21 03:24:05;;;;;;;76.70;40.75;;;3.80;86.90;;;;;;5061782;28;20204;-67
2022/12/21 03:26:40;;;;;;;85.97;44.88;;;3.80;86.90;;;;;;5062779;28;20607;-70
2022/12/21 03:29:12;;;;;;;93.28;47.15;;;3.80;86.80;;;;;;5062437;28;20202;-71
2022/12/21 03:31:44;;;;;;;88.45;46.47;;;3.80;86.80;;;;;;5062336;28;20200;-68
2022/12/21 03:34:19;;;;;;;86.13;44.40;;;3.80;86.80;;;;;;5062548;28;20207;-67
2022/12/21 03:36:51;;;;;;;95.65;45.35;;;3.80;86.90;;;;;;5059247;28;20200;-67
2022/12/21 03:39:23;;;;;;;78.95;42.85;;;3.80;86.80;;;;;;5061890;28;20277;-69
2022/12/21 03:41:55;;;;;;;83.25;40.38;;;3.80;86.80;;;;;;5062001;28;20227;-70
2022/12/21 03:44:28;;;;;;;73.88;41.95;;;3.80;86.80;;;;;;5060905;28;20204;-70
2022/12/21 03:47:01;;;;;;;90.13;44.47;;;3.80;86.90;;;;;;5061865;28;20274;-68
2022/12/21 03:49:34;;;;;;;79.05;42.83;;;3.80;86.80;;;;;;5063003;28;20232;-68
2022/12/21 03:52:06;;;;;;;81.57;41.50;;;3.80;86.80;;;;;;5062292;28;20192;-69
2022/12/21 03:54:42;;;;;;;87.32;45.33;;;3.80;86.80;;;;;;5060511;28;20231;-69
2022/12/21 03:57:11;;;;;;;76.75;41.70;;;3.80;86.80;;;;;;5062277;28;20305;-67
2022/12/21 03:59:42;;;;;;;87.75;41.28;;;3.80;86.80;;;;;;5062500;28;20238;-69
2022/12/21 04:02:16;;;;;;;76.60;41.00;;;3.80;86.80;;;;;;5062145;28;20250;-67
2022/12/21 04:04:52;;;;;;;89.78;41.85;;;3.80;86.80;;;;;;5060798;28;20203;-68
2022/12/21 04:07:23;;;;;;;67.53;38.63;;;3.80;86.90;;;;;;5062736;28;20214;-69
2022/12/21 04:09:57;;;;;;;88.50;44.72;;;3.80;86.90;;;;;;5061227;28;21034;-68
2022/12/21 04:12:38;;;;;;;78.38;41.55;;;3.80;86.80;;;;;;5062116;28;20187;-69
2022/12/21 04:15:09;;;;;;;84.40;44.13;;;3.80;86.80;;;;;;5062502;28;20689;-68
2022/12/21 04:17:37;;;;;;;81.07;38.72;;;3.80;86.90;;;;;;5060408;28;20192;-67
2022/12/21 04:20:08;;;;;;;76.38;36.65;;;3.80;87.00;;;;;;5059862;28;20247;-68
2022/12/21 04:28:14;;;;;;;58.85;29.42;;;4.10;88.00;;;;;;5062027;28;20203;-67
2022/12/21 04:31:03;;;;;;;52.50;28.25;;;4.30;88.30;;;;;;5060227;28;20238;-69
2022/12/21 04:33:32;;;;;;;63.83;29.48;;;4.50;88.60;;;;;;5058684;28;20861;-68
2022/12/21 04:38:46;;;;;;;63.72;29.27;;;4.90;89.00;;;;;;5061564;28;20547;-68
2022/12/21 04:41:15;;;;;;;56.28;28.98;;;5.10;89.20;;;;;;5064877;28;20222;-69
2022/12/21 04:43:42;;;;;;;58.25;28.48;;;5.30;89.00;;;;;;5085252;28;20629;-69
2022/12/21 04:46:13;;;;;;;56.67;29.02;;;5.50;89.10;;;;;;5065950;28;20679;-69
2022/12/21 04:48:42;;;;;;;63.75;29.67;;;5.60;89.10;;;;;;5065089;28;20508;-69
2022/12/21 04:51:13;;;;;;;58.70;29.98;;;5.70;89.00;;;;;;5065976;28;20642;-69
2022/12/21 04:53:41;;;;;;;60.47;30.15;;;5.90;89.00;;;;;;5061341;28;20289;-69
2022/12/21 04:56:10;;;;;;;56.95;29.38;;;5.90;89.10;;;;;;5066283;28;20218;-69
2022/12/21 04:58:39;;;;;;;59.50;29.95;;;6.00;89.30;;;;;;5065675;28;20222;-68
2022/12/21 05:01:09;;;;;;;56.63;29.88;;;6.10;89.10;;;;;;5065762;28;20238;-68
2022/12/21 05:03:38;;;;;;;54.92;28.08;;;6.20;89.10;;;;;;5065609;28;20230;-69
2022/12/21 05:06:06;;;;;;;67.60;31.45;;;6.20;89.20;;;;;;5066219;28;20693;-69
2022/12/21 05:08:36;;;;;;;51.25;27.65;;;6.30;89.30;;;;;;5065257;28;20599;-69
2022/12/21 05:11:08;;;;;;;63.60;30.05;;;6.30;89.20;;;;;;5065291;28;20223;-69
2022/12/21 05:13:36;;;;;;;58.65;31.00;;;6.40;89.30;;;;;;5061192;28;20212;-67
2022/12/21 05:16:06;;;;;;;62.03;31.70;;;6.40;89.20;;;;;;5063082;28;20208;-69
2022/12/21 05:18:34;;;;;;;66.03;30.45;;;6.40;89.30;;;;;;5067286;28;20222;-69
2022/12/21 05:21:02;;;;;;;59.08;28.83;;;6.50;89.40;;;;;;5065140;28;20227;-69
2022/12/21 05:23:31;;;;;;;54.13;28.55;;;6.60;89.40;;;;;;5066500;28;20199;-68
2022/12/21 05:26:01;;;;;;;65.07;29.75;;;6.60;89.40;;;;;;5065508;28;20269;-68
2022/12/21 05:28:39;;;;;;;57.58;28.73;;;6.60;89.50;;;;;;5063543;28;20282;-68
2022/12/21 05:31:07;;;;;;;65.25;30.60;;;6.70;89.60;;;;;;5080811;28;20244;-68
2022/12/21 05:33:35;;;;;;;58.20;28.88;;;6.70;89.70;;;;;;5065549;28;20678;-68
2022/12/21 05:36:04;;;;;;;60.30;29.70;;;6.70;89.90;;;;;;5063156;28;20199;-68
2022/12/21 05:38:32;;;;;;;62.00;29.52;;;6.80;89.70;;;;;;5063931;28;20207;-68
2022/12/21 05:41:01;;;;;;;72.70;31.42;;;6.80;89.70;;;;;;5064728;28;20228;-69
2022/12/21 05:43:29;;;;;;;60.17;29.45;;;6.90;89.70;;;;;;5065305;28;20208;-68
2022/12/21 05:46:01;;;;;;;69.35;32.15;;;6.90;89.80;;;;;;5065060;28;20524;-68
2022/12/21 05:48:29;;;;;;;61.65;30.73;;;6.90;89.90;;;;;;5063532;28;20192;-68
2022/12/21 05:50:58;;;;;;;59.65;29.40;;;7.00;89.80;;;;;;5063973;28;20291;-68
2022/12/21 05:53:26;;;;;;;56.13;28.58;;;7.00;90.00;;;;;;5060506;28;20203;-68
2022/12/21 05:55:53;;;;;;;64.03;32.28;;;7.00;89.90;;;;;;5062513;28;20257;-69
2022/12/21 05:58:23;;;;;;;57.08;29.52;;;7.10;89.80;;;;;;5065320;28;20235;-69
2022/12/21 06:00:52;;;;;;;57.47;29.05;;;7.10;89.80;;;;;;5064192;28;20224;-69
2022/12/21 06:03:20;;;;;;;60.88;27.55;;;7.10;89.90;;;;;;5064919;28;20983;-69
2022/12/21 06:05:49;;;;;;;63.83;29.58;;;7.20;89.90;;;;;;5060165;28;20300;-69
2022/12/21 06:08:17;;;;;;;63.58;28.27;;;7.20;89.90;;;;;;5063153;28;20204;-69
2022/12/21 06:10:45;;;;;;;64.80;29.02;;;7.20;90.00;;;;;;5062993;28;20236;-68
2022/12/21 06:13:13;;;;;;;57.03;27.95;;;7.30;90.00;;;;;;5061440;28;20245;-69
2022/12/21 06:15:43;;;;;;;53.75;28.60;;;7.30;90.20;;;;;;5061431;28;20250;-68
2022/12/21 06:18:11;;;;;;;65.60;31.10;;;7.40;90.20;;;;;;5062679;28;20699;-68
2022/12/21 06:20:39;;;;;;;56.50;28.73;;;7.40;90.20;;;;;;5074866;28;20232;-69
2022/12/21 06:23:07;;;;;;;64.47;28.92;;;7.40;90.20;;;;;;5063913;28;20227;-69
2022/12/21 06:25:35;;;;;;;64.07;30.25;;;7.50;90.30;;;;;;5064536;28;20323;-69
2022/12/21 06:28:04;;;;;;;56.67;28.48;;;7.50;90.30;;;;;;5064407;28;20204;-69
2022/12/21 06:30:32;;;;;;;67.45;30.98;;;7.60;90.40;;;;;;5063831;28;20273;-69
2022/12/21 06:33:01;;;;;;;62.38;30.15;;;7.60;90.40;;;;;;5063908;28;20227;-69
2022/12/21 06:35:29;;;;;;;61.72;31.52;;;7.60;90.50;;;;;;5084130;28;20207;-69
2022/12/21 06:37:57;;;;;;;67.78;34.63;;;7.70;90.50;;;;;;5064190;28;20211;-68
2022/12/21 06:40:25;;;;;;;70.07;33.70;;;7.70;90.60;;;;;;5064136;28;20224;-69
2022/12/21 06:42:53;;;;;;;66.60;32.83;;;7.80;90.50;;;;;;5063637;28;20290;-69
2022/12/21 06:45:21;;;;;;;66.35;30.80;;;7.80;90.50;;;;;;5062829;28;20203;-69
2022/12/21 06:47:53;;;;;;;71.47;32.58;;;7.80;90.40;;;;;;5063858;28;21033;-69
2022/12/21 06:50:22;;;;;;;62.22;32.97;;;7.80;90.50;;;;;;5062932;28;20224;-69
2022/12/21 06:52:50;;;;;;;74.25;33.72;;;7.80;90.60;;;;;;5063154;28;21250;-68
2022/12/21 06:55:18;;;;;;;63.63;30.83;;;7.90;90.70;;;;;;5064090;28;20224;-68
2022/12/21 06:57:46;;;;;;;64.63;31.00;;;7.90;90.80;;;;;;5063297;28;20211;-69
2022/12/21 07:00:15;;;;;;;54.70;26.58;;;7.90;90.60;;;;;;5063952;28;20535;-69
2022/12/21 07:02:43;;;;;;;65.20;30.17;;;7.90;90.50;;;;;;5062268;28;20216;-70
2022/12/21 07:05:11;;;;;;;58.78;28.15;;;7.90;90.60;;;;;;5063856;28;20199;-68
2022/12/21 07:07:40;;;;;;;60.78;29.33;;;8.00;90.60;;;;;;5062073;28;20903;-68
2022/12/21 07:10:09;;;;;;;59.35;28.77;;;8.00;90.50;;;;;;5063861;28;20230;-69
2022/12/21 07:12:37;;;;;;;60.13;28.67;;;8.00;90.40;;;;;;5063909;28;20202;-69
2022/12/21 07:15:05;;;;;;;54.28;27.00;;;8.00;90.50;;;;;;5078095;28;20470;-69
2022/12/21 07:17:34;;;;;;;56.70;27.70;;;8.00;90.50;;;;;;5063981;28;20261;-69
2022/12/21 07:20:02;;;;;;;48.90;25.73;;;8.00;90.40;;;;;;5058391;28;20634;-69
2022/12/21 07:22:30;;;;;;;46.13;24.55;;;8.00;90.50;;;;;;5062381;28;20821;-70
2022/12/21 07:24:59;;;;;;;47.00;25.08;;;8.00;90.60;;;;;;5062830;28;20611;-72
2022/12/21 07:27:27;;;;;;;56.70;26.40;;;8.00;90.60;;;;;;5061986;28;20293;-72
2022/12/21 07:29:55;;;;;;;57.40;27.73;;;8.00;90.50;;;;;;5061983;28;20224;-72
2022/12/21 07:32:22;;;;;;;61.08;27.95;;;8.00;90.30;;;;;;5060149;28;20987;-72
2022/12/21 07:34:50;;;;;;;49.05;24.77;;;7.90;90.30;;;;;;5059752;28;20245;-70
2022/12/21 07:37:18;;;;;;;49.65;23.52;;;7.90;90.20;;;;;;5060864;28;20199;-70
2022/12/21 07:39:46;;;;;;;51.60;23.47;;;7.90;90.30;;;;;;5054406;28;20919;-70
2022/12/21 07:42:15;;;;;;;53.17;23.42;;;7.80;90.40;;;;;;5061020;28;20946;-71
2022/12/21 07:44:56;;;;;;;42.03;21.40;;;7.80;90.50;;;;;;5053600;28;20212;-70
2022/12/21 07:47:33;;;;;;;46.83;23.88;;;7.90;90.50;;;;;;5061548;28;20207;-70
2022/12/21 07:50:01;;;;;;;43.80;22.95;;;7.80;90.60;;;;;;5062891;28;20273;-70
2022/12/21 07:52:30;;;;;;;44.80;24.20;;;7.90;90.80;;;;;;5059402;28;20253;-70
2022/12/21 07:54:58;;;;;;;45.70;24.15;;;7.90;90.90;;;;;;5062876;28;20196;-70
2022/12/21 07:57:28;;;;;;;43.38;22.25;;;7.90;90.80;;;;;;5062996;28;20219;-70
2022/12/21 07:59:55;;;;;;;43.58;22.08;;;7.90;90.90;;;;;;5062827;28;20239;-70
2022/12/21 08:02:23;;;;;;;38.45;20.58;;;7.90;90.80;;;;;;5064213;28;20258;-70
2022/12/21 08:04:51;;;;;;;43.97;22.60;;;7.90;90.90;;;;;;5062430;28;20207;-71
2022/12/21 08:07:19;;;;;;;39.35;21.30;;;8.00;90.70;;;;;;5063130;28;20446;-71
2022/12/21 08:09:47;;;;;;;41.78;20.65;;;8.00;90.80;;;;;;5061368;28;20216;-71
2022/12/21 08:12:15;;;;;;;43.08;22.23;;;8.00;90.90;;;;;;5062817;28;20674;-71
2022/12/21 08:14:46;;;;;;;41.67;20.30;;;8.00;91.00;;;;;;5059705;28;20195;-72
2022/12/21 08:17:14;;;;;;;37.78;20.65;;;8.00;91.10;;;;;;5063176;28;20454;-71
2022/12/21 08:19:42;;;;;;;46.70;22.03;;;8.00;91.20;;;;;;5062382;28;21095;-70
2022/12/21 08:22:10;;;;;;;45.28;22.63;;;8.10;91.20;;;;;;5062412;28;20450;-71
2022/12/21 08:24:38;;;;;;;55.63;25.00;;;8.10;91.20;;;;;;5062295;28;20763;-71
2022/12/21 08:27:06;;;;;;;45.85;21.65;;;8.10;91.10;;;;;;5062736;28;20519;-71
2022/12/21 08:29:34;;;;;;;44.25;21.00;;;8.10;91.20;;;;;;5061723;28;20288;-72
2022/12/21 08:32:03;;;;;;;44.33;21.05;;;8.10;91.20;;;;;;5062011;28;20245;-72
2022/12/21 08:34:32;;;;;;;43.87;21.40;;;8.20;91.30;;;;;;5062439;28;20231;-72
2022/12/21 08:37:00;;;;;;;40.47;20.43;;;8.20;91.20;;;;;;5062420;28;20450;-70
2022/12/21 08:39:28;;;;;;;40.13;19.50;;;8.20;91.20;;;;;;5062564;28;20484;-71
2022/12/21 08:41:56;;;;;;;48.90;21.60;;;8.20;91.20;;;;;;5061820;28;21005;-71
2022/12/21 08:44:24;;;;;;;40.30;19.60;;;8.30;91.30;;;;;;5062556;28;21393;-71
2022/12/21 08:46:52;;;;;;;41.90;18.77;;;8.30;91.10;;;;;;5061865;28;20483;-71
2022/12/21 08:49:21;;;;;;;34.50;18.10;;;8.20;91.10;;;;;;5062249;28;20481;-71
2022/12/21 08:51:49;;;;;;;36.78;16.75;;;8.20;91.20;;;;;;5059784;28;21081;-71
2022/12/21 08:54:17;;;;;;;45.75;22.27;;;8.20;91.10;;;;;;5062267;28;20204;-71
2022/12/21 08:56:45;;;;;;;43.25;21.48;;;8.20;91.20;;;;;;5062143;28;20223;-71
2022/12/21 08:59:13;;;;;;;32.40;16.00;;;8.20;91.20;;;;;;5061737;28;20228;-71
2022/12/21 09:01:41;;;;;;;31.53;15.43;;;8.20;91.20;;;;;;5061141;28;20519;-71
2022/12/21 09:04:09;;;;;;;24.23;13.32;;;8.20;91.30;;;;;;5061980;28;20497;-71
2022/12/21 09:06:39;;;;;;;28.03;14.33;;;8.30;91.40;;;;;;5061209;28;20219;-71
2022/12/21 09:09:08;;;;;;;32.63;15.20;;;8.30;91.40;;;;;;5061815;28;20516;-70
2022/12/21 09:11:36;;;;;;;30.50;15.55;;;8.30;91.60;;;;;;5061702;28;20966;-70
2022/12/21 09:14:20;;;;;;;29.70;14.53;;;8.40;91.40;;;;;;5061447;28;20196;-70
2022/12/21 09:16:48;;;;;;;29.67;14.80;;;8.40;91.40;;;;;;5061996;28;20465;-71
2022/12/21 09:19:16;;;;;;;25.98;13.82;;;8.40;91.30;;;;;;5062318;28;20466;-70
2022/12/21 09:21:45;;;;;;;32.05;15.32;;;8.40;91.30;;;;;;5059236;28;20204;-70
2022/12/21 09:24:14;;;;;;;142.30;72.60;;;8.40;91.50;;;;;;5070965;28;20219;-70
2022/12/21 09:26:42;;;;;;;68.23;35.93;;;8.50;91.50;;;;;;5061652;28;20458;-70
2022/12/21 09:29:10;;;;;;;39.70;21.52;;;8.50;91.50;;;;;;5063921;28;20466;-70
2022/12/21 09:31:38;;;;;;;29.92;16.45;;;8.50;91.50;;;;;;5063483;28;20212;-70
2022/12/21 09:34:06;;;;;;;27.48;14.63;;;8.50;91.40;;;;;;5064499;28;20192;-70
2022/12/21 09:36:34;;;;;;;28.67;13.43;;;8.50;91.40;;;;;;5063583;28;20199;-70
2022/12/21 09:39:23;;;;;;;23.60;12.77;;;8.50;91.30;;;;;;5064990;28;20572;-70
2022/12/21 09:42:00;;;;;;;31.20;14.43;;;8.50;91.40;;;;;;5064459;28;20449;-70
2022/12/21 09:44:46;;;;;;;24.02;13.32;;;8.50;91.40;;;;;;5063203;28;21212;-70
2022/12/21 09:47:18;;;;;;;28.77;14.57;;;8.50;91.40;;;;;;5065375;28;20542;-70
2022/12/21 09:49:52;;;;;;;25.37;13.87;;;8.50;91.50;;;;;;5062839;28;20224;-70
2022/12/21 09:52:25;;;;;;;21.85;12.90;;;8.50;91.50;;;;;;5064986;28;20449;-71
2022/12/21 09:55:00;;;;;;;21.27;11.60;;;8.50;91.60;;;;;;5064235;28;20200;-70
2022/12/21 09:57:32;;;;;;;19.08;10.57;;;8.50;91.60;;;;;;5067172;28;20466;-71
2022/12/21 10:00:01;;;;;;;22.40;13.00;;;8.60;91.70;;;;;;5064818;28;20571;-70
2022/12/21 10:02:49;;;;;;;22.03;11.50;;;8.60;91.70;;;;;;5063997;28;20449;-71
2022/12/21 10:05:32;;;;;;;18.47;10.70;;;8.70;91.70;;;;;;5082701;28;20477;-72
2022/12/21 10:08:42;;;;;;;21.73;12.00;;;8.70;91.70;;;;;;5064199;28;20535;-71
2022/12/21 10:11:20;;;;;;;19.40;10.33;;;8.70;91.90;;;;;;5044003;28;20348;-71
2022/12/21 10:13:59;;;;;;;20.93;11.90;;;8.80;91.70;;;;;;5064876;28;20963;-71
2022/12/21 10:16:36;;;;;;;20.27;11.30;;;8.70;91.70;;;;;;5064255;28;20540;-71
2022/12/21 10:19:20;;;;;;;24.40;12.68;;;8.70;91.80;;;;;;5063397;28;20449;-71
2022/12/21 10:21:58;;;;;;;21.98;12.07;;;8.80;91.80;;;;;;5062976;28;20265;-70
2022/12/21 10:24:29;;;;;;;22.70;13.03;;;8.80;91.80;;;;;;5063920;28;20215;-68
2022/12/21 10:27:03;;;;;;;22.33;11.83;;;8.80;91.90;;;;;;5063204;28;20449;-67
2022/12/21 10:29:35;;;;;;;21.97;12.90;;;8.80;91.80;;;;;;5064443;28;21086;-67
2022/12/21 10:32:03;;;;;;;22.40;13.53;;;8.80;91.80;;;;;;5063697;28;20454;-68
2022/12/21 10:34:34;;;;;;;26.80;13.67;;;8.90;91.90;;;;;;5064276;28;20445;-67
2022/12/21 10:37:06;;;;;;;24.20;14.43;;;8.90;91.90;;;;;;5051691;28;20459;-71
2022/12/21 10:39:34;;;;;;;26.40;14.90;;;8.90;91.90;;;;;;5064390;28;20474;-69
2022/12/21 10:42:08;;;;;;;32.27;16.17;;;8.90;91.90;;;;;;5063003;28;20466;-71
2022/12/21 10:44:41;;;;;;;36.93;18.17;;;8.90;92.00;;;;;;5063048;28;20541;-70
2022/12/21 10:47:14;;;;;;;32.37;17.83;;;9.00;91.90;;;;;;5064316;28;20450;-70
2022/12/21 10:49:46;;;;;;;27.73;16.80;;;9.00;92.00;;;;;;5061940;28;20476;-71
2022/12/21 10:52:34;;;;;;;36.90;18.30;;;9.00;91.90;;;;;;5062002;28;20523;-70
2022/12/21 10:55:02;;;;;;;31.33;17.37;;;9.00;91.90;;;;;;5063013;28;20557;-70
2022/12/21 10:57:33;;;;;;;36.53;18.17;;;9.00;91.80;;;;;;5064350;28;20923;-70
2022/12/21 11:00:21;;;;;;;40.73;19.77;;;8.90;91.80;;;;;;5062324;28;20528;-70
2022/12/21 11:02:51;;;;;;;39.05;21.00;;;9.00;91.80;;;;;;5078603;28;20462;-70
2022/12/21 11:05:30;;;;;;;37.33;19.83;;;9.00;91.90;;;;;;5063720;28;20689;-70
2022/12/21 11:08:16;;;;;;;41.90;19.80;;;9.00;92.00;;;;;;5066407;28;20457;-70
2022/12/21 11:10:46;;;;;;;36.20;20.30;;;9.00;91.80;;;;;;5060050;28;20852;-70
2022/12/21 11:13:24;;;;;;;37.37;20.40;;;9.00;91.80;;;;;;5060367;28;20511;-70
2022/12/21 11:15:59;;;;;;;44.33;22.10;;;9.00;91.80;;;;;;5062820;28;20471;-70
2022/12/21 11:18:42;;;;;;;41.90;22.10;;;9.00;91.90;;;;;;5062844;28;20450;-71
2022/12/21 11:21:22;;;;;;;44.50;21.70;;;9.00;91.80;;;;;;5061824;28;21024;-69
2022/12/21 11:23:58;;;;;;;38.70;20.57;;;9.00;92.00;;;;;;5062867;28;20552;-71
2022/12/21 11:26:30;;;;;;;45.43;22.37;;;9.00;91.90;;;;;;5061338;28;20476;-70
2022/12/21 11:29:02;;;;;;;47.90;23.07;;;9.00;91.90;;;;;;5058417;28;20519;-70
2022/12/21 11:31:32;;;;;;;48.93;23.23;;;9.00;91.90;;;;;;5060981;28;20508;-72
2022/12/21 11:34:20;;;;;;;40.13;21.10;;;9.10;91.80;;;;;;5062452;28;20454;-71
2022/12/21 11:36:55;;;;;;;43.70;22.63;;;9.00;91.80;;;;;;5059615;28;20451;-70
2022/12/21 11:39:24;;;;;;;38.20;18.98;;;9.00;91.90;;;;;;5061549;28;20462;-69
2022/12/21 11:41:53;;;;;;;33.70;19.60;;;9.10;91.90;;;;;;5060132;28;20211;-69
2022/12/21 11:44:25;;;;;;;35.30;20.70;;;9.10;92.00;;;;;;5061892;28;20450;-70
2022/12/21 11:47:20;;;;;;;42.40;22.87;;;9.10;92.10;;;;;;5063307;28;20499;-70
2022/12/21 11:50:23;;;;;;;39.67;21.60;;;9.10;92.10;;;;;;5064308;28;20576;-70
2022/12/21 11:53:20;;;;;;;40.63;21.97;;;9.10;92.20;;;;;;5062202;28;20458;-70
2022/12/21 11:56:07;;;;;;;36.90;19.93;;;9.20;92.30;;;;;;5057974;28;20803;-69
2022/12/21 11:58:49;;;;;;;34.80;19.67;;;9.20;92.30;;;;;;5062659;28;20450;-68
2022/12/21 12:01:34;;;;;;;33.77;20.37;;;9.20;92.20;;;;;;5060986;28;20477;-69
2022/12/21 12:04:19;;;;;;;37.30;20.23;;;9.30;92.20;;;;;;5062639;28;20454;-72
2022/12/21 12:07:21;;;;;;;33.73;19.77;;;9.30;92.30;;;;;;5061305;28;20473;-71
2022/12/21 12:10:19;;;;;;;33.37;19.37;;;9.30;92.40;;;;;;5043558;28;20530;-71
2022/12/21 12:12:58;;;;;;;32.00;18.20;;;9.30;92.30;;;;;;5060716;28;20499;-70
2022/12/21 12:15:41;;;;;;;33.57;18.63;;;9.40;92.20;;;;;;5062033;28;20495;-71
2022/12/21 12:18:35;;;;;;;29.10;17.67;;;9.40;92.10;;;;;;5061422;28;20558;-71
2022/12/21 12:21:35;;;;;;;31.43;17.57;;;9.40;92.00;;;;;;5061694;28;20470;-70
2022/12/21 12:24:23;;;;;;;29.47;16.80;;;9.40;92.30;;;;;;5060334;28;20462;-71
2022/12/21 12:27:01;;;;;;;30.47;17.77;;;9.40;92.30;;;;;;5062171;28;20474;-70
2022/12/21 12:30:00;;;;;;;26.93;16.77;;;9.50;92.20;;;;;;5062645;28;20589;-70
2022/12/21 12:32:45;;;;;;;29.67;17.10;;;9.50;92.20;;;;;;5060790;28;20466;-71
2022/12/21 12:35:42;;;;;;;31.20;17.43;;;9.50;92.10;;;;;;5062544;28;20457;-71
2022/12/21 12:38:15;;;;;;;29.80;17.00;;;9.50;92.10;;;;;;5062339;28;20442;-71
2022/12/21 12:40:56;;;;;;;30.80;17.40;;;9.50;92.10;;;;;;5062308;28;20473;-70
2022/12/21 12:43:36;;;;;;;32.20;17.90;;;9.50;92.20;;;;;;5062216;28;20998;-70
2022/12/21 12:46:12;;;;;;;28.43;16.37;;;9.60;92.30;;;;;;5080583;28;20531;-71
2022/12/21 12:48:49;;;;;;;28.80;16.73;;;9.60;92.20;;;;;;5061052;28;20493;-71
2022/12/21 12:51:27;;;;;;;30.17;17.17;;;9.60;92.20;;;;;;5061126;28;20517;-69
2022/12/21 12:54:02;;;;;;;28.87;18.60;;;9.60;92.20;;;;;;5062224;28;20449;-71
2022/12/21 12:56:38;;;;;;;30.60;17.60;;;9.60;92.10;;;;;;5062226;28;20462;-69
2022/12/21 12:59:12;;;;;;;40.00;21.90;;;9.60;92.10;;;;;;5062524;28;20450;-69
2022/12/21 13:01:48;;;;;;;39.13;19.60;;;9.60;92.30;;;;;;5063179;28;20461;-69
2022/12/21 13:04:57;;;;;;;36.63;19.97;;;9.70;92.30;;;;;;5064528;28;20480;-69
2022/12/21 13:07:37;;;;;;;35.47;18.53;;;9.70;92.30;;;;;;5064764;28;20449;-69
2022/12/21 13:10:13;;;;;;;33.30;18.60;;;9.70;92.40;;;;;;5065672;28;20476;-69
2022/12/21 13:12:48;;;;;;;36.17;18.30;;;9.70;92.40;;;;;;5066137;28;20457;-69
2022/12/21 13:15:22;;;;;;;33.87;19.73;;;9.80;92.20;;;;;;5066161;28;20500;-71